sensor_id;sensor_type;location;lat;lon;timestamp;P1;durP1;ratioP1;P2;durP2;ratioP2
24799;SDS011;12897;50.812;4.430;2023-07-24T01:13:41;15.20;;;6.17;;
24799;SDS011;12897;50.812;4.430;2023-07-24T01:16:13;14.58;;;7.35;;
24799;SDS011;12897;50.812;4.430;2023-07-24T01:18:41;17.20;;;7.42;;
24799;SDS011;12897;50.812;4.430;2023-07-24T01:21:13;17.87;;;7.10;;
24799;SDS011;12897;50.812;4.430;2023-07-24T01:26:16;14.40;;;7.20;;
24799;SDS011;12897;50.812;4.430;2023-07-24T01:28:46;14.38;;;6.70;;
24799;SDS011;12897;50.812;4.430;2023-07-24T01:31:16;13.13;;;6.45;;
24799;SDS011;12897;50.812;4.430;2023-07-24T01:33:45;14.00;;;6.75;;
24799;SDS011;12897;50.812;4.430;2023-07-24T01:36:15;20.10;;;7.47;;
24799;SDS011;12897;50.812;4.430;2023-07-24T01:38:51;18.52;;;7.10;;
24799;SDS011;12897;50.812;4.430;2023-07-24T01:41:22;12.60;;;6.80;;
24799;SDS011;12897;50.812;4.430;2023-07-24T01:44:05;15.88;;;6.67;;
24799;SDS011;12897;50.812;4.430;2023-07-24T01:46:43;16.48;;;7.50;;
24799;SDS011;12897;50.812;4.430;2023-07-24T01:49:19;11.60;;;6.42;;
24799;SDS011;12897;50.812;4.430;2023-07-24T01:54:35;14.30;;;6.83;;
24799;SDS011;12897;50.812;4.430;2023-07-24T01:57:10;15.53;;;6.83;;
24799;SDS011;12897;50.812;4.430;2023-07-24T01:59:38;13.13;;;6.58;;
24799;SDS011;12897;50.812;4.430;2023-07-24T02:02:09;13.80;;;6.40;;
24799;SDS011;12897;50.812;4.430;2023-07-24T02:04:37;11.70;;;6.50;;
24799;SDS011;12897;50.812;4.430;2023-07-24T02:07:06;10.88;;;5.90;;
24799;SDS011;12897;50.812;4.430;2023-07-24T02:09:37;7.75;;;5.70;;
24799;SDS011;12897;50.812;4.430;2023-07-24T02:12:05;11.33;;;5.72;;
24799;SDS011;12897;50.812;4.430;2023-07-24T02:14:36;13.30;;;6.17;;
24799;SDS011;12897;50.812;4.430;2023-07-24T02:17:04;10.93;;;5.22;;
24799;SDS011;12897;50.812;4.430;2023-07-24T02:19:33;8.93;;;4.83;;
24799;SDS011;12897;50.812;4.430;2023-07-24T02:22:00;8.73;;;5.37;;
24799;SDS011;12897;50.812;4.430;2023-07-24T02:24:31;9.38;;;5.25;;
24799;SDS011;12897;50.812;4.430;2023-07-24T02:27:00;10.60;;;5.08;;
24799;SDS011;12897;50.812;4.430;2023-07-24T02:29:27;8.53;;;5.00;;
24799;SDS011;12897;50.812;4.430;2023-07-24T02:31:55;8.30;;;5.00;;
24799;SDS011;12897;50.812;4.430;2023-07-24T02:34:28;10.40;;;4.87;;
24799;SDS011;12897;50.812;4.430;2023-07-24T02:36:54;8.40;;;4.53;;
24799;SDS011;12897;50.812;4.430;2023-07-24T02:39:21;7.70;;;4.28;;
24799;SDS011;12897;50.812;4.430;2023-07-24T02:41:51;11.05;;;4.33;;
24799;SDS011;12897;50.812;4.430;2023-07-24T02:44:20;8.55;;;3.90;;
24799;SDS011;12897;50.812;4.430;2023-07-24T02:46:55;9.80;;;4.12;;
24799;SDS011;12897;50.812;4.430;2023-07-24T02:49:24;7.12;;;4.12;;
24799;SDS011;12897;50.812;4.430;2023-07-24T02:51:54;10.58;;;4.87;;
24799;SDS011;12897;50.812;4.430;2023-07-24T02:54:21;8.83;;;5.20;;
24799;SDS011;12897;50.812;4.430;2023-07-24T02:56:49;13.10;;;5.70;;
24799;SDS011;12897;50.812;4.430;2023-07-24T02:59:17;7.83;;;5.45;;
24799;SDS011;12897;50.812;4.430;2023-07-24T03:01:49;9.73;;;4.45;;
24799;SDS011;12897;50.812;4.430;2023-07-24T03:04:14;8.73;;;5.22;;
24799;SDS011;12897;50.812;4.430;2023-07-24T03:06:41;6.72;;;3.80;;
24799;SDS011;12897;50.812;4.430;2023-07-24T03:09:09;7.20;;;4.25;;
24799;SDS011;12897;50.812;4.430;2023-07-24T03:11:36;6.55;;;2.70;;
24799;SDS011;12897;50.812;4.430;2023-07-24T03:14:16;2.90;;;2.10;;
24799;SDS011;12897;50.812;4.430;2023-07-24T03:16:43;4.35;;;2.50;;
24799;SDS011;12897;50.812;4.430;2023-07-24T03:19:21;4.75;;;2.70;;
24799;SDS011;12897;50.812;4.430;2023-07-24T03:21:48;3.98;;;2.83;;
24799;SDS011;12897;50.812;4.430;2023-07-24T03:24:31;3.83;;;2.87;;
24799;SDS011;12897;50.812;4.430;2023-07-24T03:26:52;4.08;;;2.52;;
24799;SDS011;12897;50.812;4.430;2023-07-24T03:29:47;3.90;;;2.70;;
24799;SDS011;12897;50.812;4.430;2023-07-24T03:32:19;4.37;;;2.85;;
24799;SDS011;12897;50.812;4.430;2023-07-24T03:40:09;4.58;;;2.90;;
24799;SDS011;12897;50.812;4.430;2023-07-24T04:25:40;4.83;;;2.67;;
24799;SDS011;12897;50.812;4.430;2023-07-24T04:30:52;6.08;;;2.55;;
24799;SDS011;12897;50.812;4.430;2023-07-24T04:33:20;4.35;;;2.40;;
24799;SDS011;12897;50.812;4.430;2023-07-24T04:35:49;4.60;;;2.47;;
24799;SDS011;12897;50.812;4.430;2023-07-24T04:38:29;4.03;;;2.92;;
24799;SDS011;12897;50.812;4.430;2023-07-24T04:43:21;4.17;;;3.25;;
24799;SDS011;12897;50.812;4.430;2023-07-24T04:48:33;7.80;;;3.25;;
24799;SDS011;12897;50.812;4.430;2023-07-24T04:51:02;4.37;;;3.12;;
24799;SDS011;12897;50.812;4.430;2023-07-24T04:53:46;5.65;;;3.08;;
24799;SDS011;12897;50.812;4.430;2023-07-24T05:54:59;4.97;;;2.50;;
24799;SDS011;12897;50.812;4.430;2023-07-24T06:42:32;6.05;;;2.67;;
24799;SDS011;12897;50.812;4.430;2023-07-24T07:04:02;5.75;;;2.60;;
24799;SDS011;12897;50.812;4.430;2023-07-24T07:09:36;7.53;;;2.37;;
24799;SDS011;12897;50.812;4.430;2023-07-24T07:15:09;3.75;;;2.45;;
24799;SDS011;12897;50.812;4.430;2023-07-24T07:20:26;4.17;;;3.10;;
24799;SDS011;12897;50.812;4.430;2023-07-24T07:45:34;5.47;;;2.77;;
24799;SDS011;12897;50.812;4.430;2023-07-24T07:57:48;8.03;;;3.12;;
24799;SDS011;12897;50.812;4.430;2023-07-24T08:11:42;6.90;;;3.25;;
24799;SDS011;12897;50.812;4.430;2023-07-24T08:17:36;4.25;;;2.60;;
24799;SDS011;12897;50.812;4.430;2023-07-24T08:42:13;10.13;;;3.50;;
24799;SDS011;12897;50.812;4.430;2023-07-24T08:44:53;6.08;;;2.85;;
24799;SDS011;12897;50.812;4.430;2023-07-24T08:47:29;7.83;;;3.40;;
24799;SDS011;12897;50.812;4.430;2023-07-24T08:52:42;6.40;;;3.72;;
24799;SDS011;12897;50.812;4.430;2023-07-24T08:55:25;5.28;;;3.40;;
24799;SDS011;12897;50.812;4.430;2023-07-24T09:22:20;6.58;;;3.92;;
24799;SDS011;12897;50.812;4.430;2023-07-24T09:25:01;8.33;;;4.40;;
24799;SDS011;12897;50.812;4.430;2023-07-24T09:33:04;10.30;;;3.95;;
24799;SDS011;12897;50.812;4.430;2023-07-24T10:55:41;6.00;;;3.27;;
24799;SDS011;12897;50.812;4.430;2023-07-24T11:00:54;5.45;;;2.92;;
24799;SDS011;12897;50.812;4.430;2023-07-24T11:03:24;4.60;;;2.87;;
24799;SDS011;12897;50.812;4.430;2023-07-24T11:05:59;4.35;;;3.10;;
24799;SDS011;12897;50.812;4.430;2023-07-24T11:08:25;5.62;;;3.47;;
24799;SDS011;12897;50.812;4.430;2023-07-24T11:10:55;4.17;;;3.22;;
24799;SDS011;12897;50.812;4.430;2023-07-24T11:13:27;5.72;;;3.10;;
24799;SDS011;12897;50.812;4.430;2023-07-24T11:15:57;5.55;;;3.20;;
24799;SDS011;12897;50.812;4.430;2023-07-24T11:18:43;5.95;;;3.50;;
24799;SDS011;12897;50.812;4.430;2023-07-24T11:21:00;5.78;;;3.50;;
24799;SDS011;12897;50.812;4.430;2023-07-24T11:23:31;6.30;;;3.58;;
24799;SDS011;12897;50.812;4.430;2023-07-24T11:26:11;5.53;;;3.35;;
24799;SDS011;12897;50.812;4.430;2023-07-24T11:28:38;4.78;;;3.20;;
24799;SDS011;12897;50.812;4.430;2023-07-24T11:31:07;5.15;;;3.47;;
24799;SDS011;12897;50.812;4.430;2023-07-24T11:33:41;7.05;;;3.58;;
24799;SDS011;12897;50.812;4.430;2023-07-24T11:36:10;7.67;;;3.95;;
24799;SDS011;12897;50.812;4.430;2023-07-24T11:38:39;7.53;;;4.00;;
24799;SDS011;12897;50.812;4.430;2023-07-24T11:41:07;6.25;;;3.55;;
24799;SDS011;12897;50.812;4.430;2023-07-24T11:43:36;7.12;;;3.42;;
24799;SDS011;12897;50.812;4.430;2023-07-24T11:46:06;5.92;;;3.83;;
24799;SDS011;12897;50.812;4.430;2023-07-24T11:48:40;7.78;;;3.95;;
24799;SDS011;12897;50.812;4.430;2023-07-24T11:51:14;7.17;;;3.80;;
24799;SDS011;12897;50.812;4.430;2023-07-24T11:53:39;6.97;;;4.10;;
24799;SDS011;12897;50.812;4.430;2023-07-24T11:56:13;6.45;;;4.15;;
24799;SDS011;12897;50.812;4.430;2023-07-24T11:58:41;8.68;;;4.25;;
24799;SDS011;12897;50.812;4.430;2023-07-24T12:01:12;10.80;;;4.30;;
24799;SDS011;12897;50.812;4.430;2023-07-24T12:03:41;6.95;;;4.60;;
24799;SDS011;12897;50.812;4.430;2023-07-24T12:06:16;7.35;;;4.20;;
24799;SDS011;12897;50.812;4.430;2023-07-24T12:08:44;10.48;;;4.25;;
24799;SDS011;12897;50.812;4.430;2023-07-24T12:11:17;8.15;;;3.95;;
24799;SDS011;12897;50.812;4.430;2023-07-24T12:13:46;8.38;;;3.85;;
24799;SDS011;12897;50.812;4.430;2023-07-24T12:16:29;7.90;;;3.70;;
24799;SDS011;12897;50.812;4.430;2023-07-24T12:19:01;6.30;;;3.90;;
24799;SDS011;12897;50.812;4.430;2023-07-24T12:21:32;6.10;;;3.52;;
24799;SDS011;12897;50.812;4.430;2023-07-24T12:24:01;5.37;;;3.80;;
24799;SDS011;12897;50.812;4.430;2023-07-24T12:26:30;10.98;;;3.87;;
24799;SDS011;12897;50.812;4.430;2023-07-24T12:28:58;7.67;;;3.65;;
24799;SDS011;12897;50.812;4.430;2023-07-24T12:31:32;6.83;;;4.03;;
24799;SDS011;12897;50.812;4.430;2023-07-24T12:34:04;7.33;;;3.55;;
24799;SDS011;12897;50.812;4.430;2023-07-24T12:36:34;5.87;;;3.80;;
24799;SDS011;12897;50.812;4.430;2023-07-24T12:39:06;5.50;;;3.27;;
24799;SDS011;12897;50.812;4.430;2023-07-24T12:41:35;8.18;;;4.30;;
24799;SDS011;12897;50.812;4.430;2023-07-24T12:44:06;5.75;;;3.58;;
24799;SDS011;12897;50.812;4.430;2023-07-24T12:46:36;5.62;;;3.67;;
24799;SDS011;12897;50.812;4.430;2023-07-24T12:49:05;11.53;;;3.45;;
24799;SDS011;12897;50.812;4.430;2023-07-24T12:51:39;6.40;;;3.25;;
24799;SDS011;12897;50.812;4.430;2023-07-24T12:54:23;6.75;;;3.70;;
24799;SDS011;12897;50.812;4.430;2023-07-24T12:56:52;7.58;;;3.72;;
24799;SDS011;12897;50.812;4.430;2023-07-24T12:59:24;6.85;;;3.58;;
24799;SDS011;12897;50.812;4.430;2023-07-24T13:01:55;7.00;;;3.33;;
24799;SDS011;12897;50.812;4.430;2023-07-24T13:06:50;4.25;;;3.35;;
24799;SDS011;12897;50.812;4.430;2023-07-24T13:09:19;5.05;;;3.12;;
24799;SDS011;12897;50.812;4.430;2023-07-24T13:11:56;6.00;;;3.63;;
24799;SDS011;12897;50.812;4.430;2023-07-24T13:14:24;5.53;;;3.30;;
24799;SDS011;12897;50.812;4.430;2023-07-24T13:16:52;9.50;;;4.00;;
24799;SDS011;12897;50.812;4.430;2023-07-24T13:19:19;8.85;;;4.15;;
24799;SDS011;12897;50.812;4.430;2023-07-24T13:21:59;7.65;;;4.15;;
24799;SDS011;12897;50.812;4.430;2023-07-24T13:24:34;8.30;;;3.65;;
24799;SDS011;12897;50.812;4.430;2023-07-24T13:27:14;8.65;;;3.67;;
24799;SDS011;12897;50.812;4.430;2023-07-24T13:29:50;10.45;;;3.52;;
24799;SDS011;12897;50.812;4.430;2023-07-24T13:32:26;7.80;;;3.80;;
24799;SDS011;12897;50.812;4.430;2023-07-24T13:35:04;9.38;;;3.47;;
24799;SDS011;12897;50.812;4.430;2023-07-24T13:37:41;7.67;;;4.10;;
24799;SDS011;12897;50.812;4.430;2023-07-24T13:40:21;6.87;;;4.00;;
24799;SDS011;12897;50.812;4.430;2023-07-24T13:42:55;5.87;;;4.22;;
24799;SDS011;12897;50.812;4.430;2023-07-24T13:45:37;9.13;;;3.83;;
24799;SDS011;12897;50.812;4.430;2023-07-24T13:48:16;5.15;;;3.80;;
24799;SDS011;12897;50.812;4.430;2023-07-24T13:50:47;8.05;;;3.60;;
24799;SDS011;12897;50.812;4.430;2023-07-24T13:53:20;7.53;;;3.60;;
24799;SDS011;12897;50.812;4.430;2023-07-24T13:55:48;5.85;;;3.45;;
24799;SDS011;12897;50.812;4.430;2023-07-24T13:58:19;6.50;;;3.12;;
24799;SDS011;12897;50.812;4.430;2023-07-24T14:00:48;5.42;;;2.95;;
24799;SDS011;12897;50.812;4.430;2023-07-24T14:03:18;4.03;;;3.10;;
24799;SDS011;12897;50.812;4.430;2023-07-24T14:05:46;7.33;;;3.30;;
24799;SDS011;12897;50.812;4.430;2023-07-24T14:08:13;6.80;;;3.85;;
24799;SDS011;12897;50.812;4.430;2023-07-24T14:10:41;6.05;;;3.35;;
24799;SDS011;12897;50.812;4.430;2023-07-24T14:13:08;6.22;;;3.50;;
24799;SDS011;12897;50.812;4.430;2023-07-24T14:15:37;7.47;;;3.50;;
24799;SDS011;12897;50.812;4.430;2023-07-24T14:18:06;6.65;;;3.37;;
24799;SDS011;12897;50.812;4.430;2023-07-24T14:20:33;6.15;;;3.47;;
24799;SDS011;12897;50.812;4.430;2023-07-24T14:23:02;10.23;;;3.70;;
24799;SDS011;12897;50.812;4.430;2023-07-24T14:25:30;9.55;;;3.65;;
24799;SDS011;12897;50.812;4.430;2023-07-24T14:27:58;9.00;;;3.45;;
24799;SDS011;12897;50.812;4.430;2023-07-24T14:30:25;6.28;;;3.47;;
24799;SDS011;12897;50.812;4.430;2023-07-24T14:32:53;6.97;;;3.40;;
24799;SDS011;12897;50.812;4.430;2023-07-24T14:35:21;6.58;;;3.50;;
24799;SDS011;12897;50.812;4.430;2023-07-24T14:37:49;6.03;;;3.30;;
24799;SDS011;12897;50.812;4.430;2023-07-24T14:40:18;6.42;;;3.12;;
24799;SDS011;12897;50.812;4.430;2023-07-24T14:42:46;6.47;;;3.40;;
24799;SDS011;12897;50.812;4.430;2023-07-24T14:45:15;6.45;;;3.83;;
24799;SDS011;12897;50.812;4.430;2023-07-24T14:47:42;7.10;;;3.40;;
24799;SDS011;12897;50.812;4.430;2023-07-24T14:50:10;6.70;;;3.42;;
24799;SDS011;12897;50.812;4.430;2023-07-24T14:52:37;6.47;;;3.10;;
24799;SDS011;12897;50.812;4.430;2023-07-24T14:55:06;7.10;;;3.08;;
24799;SDS011;12897;50.812;4.430;2023-07-24T14:57:35;6.12;;;3.58;;
24799;SDS011;12897;50.812;4.430;2023-07-24T15:00:03;6.67;;;3.58;;
24799;SDS011;12897;50.812;4.430;2023-07-24T15:04:59;7.08;;;3.15;;
24799;SDS011;12897;50.812;4.430;2023-07-24T15:07:27;4.95;;;2.70;;
24799;SDS011;12897;50.812;4.430;2023-07-24T15:09:57;3.80;;;2.58;;
24799;SDS011;12897;50.812;4.430;2023-07-24T15:12:24;7.67;;;3.05;;
24799;SDS011;12897;50.812;4.430;2023-07-24T15:14:54;6.80;;;2.80;;
24799;SDS011;12897;50.812;4.430;2023-07-24T15:17:21;7.95;;;3.20;;
24799;SDS011;12897;50.812;4.430;2023-07-24T15:19:51;8.75;;;3.47;;
24799;SDS011;12897;50.812;4.430;2023-07-24T15:24:48;9.10;;;4.17;;
24799;SDS011;12897;50.812;4.430;2023-07-24T15:27:21;11.22;;;3.80;;
24799;SDS011;12897;50.812;4.430;2023-07-24T15:29:46;9.20;;;4.40;;
24799;SDS011;12897;50.812;4.430;2023-07-24T15:32:15;11.65;;;5.00;;
24799;SDS011;12897;50.812;4.430;2023-07-24T15:34:43;8.38;;;4.03;;
24799;SDS011;12897;50.812;4.430;2023-07-24T15:37:12;14.15;;;4.97;;
24799;SDS011;12897;50.812;4.430;2023-07-24T15:39:39;14.00;;;5.70;;
24799;SDS011;12897;50.812;4.430;2023-07-24T15:42:07;8.98;;;4.90;;
24799;SDS011;12897;50.812;4.430;2023-07-24T15:44:34;12.50;;;4.78;;
24799;SDS011;12897;50.812;4.430;2023-07-24T15:47:02;9.70;;;5.05;;
24799;SDS011;12897;50.812;4.430;2023-07-24T15:49:33;10.32;;;4.97;;
24799;SDS011;12897;50.812;4.430;2023-07-24T15:52:01;13.03;;;5.28;;
24799;SDS011;12897;50.812;4.430;2023-07-24T15:54:31;7.03;;;5.15;;
24799;SDS011;12897;50.812;4.430;2023-07-24T15:57:04;11.68;;;5.00;;
24799;SDS011;12897;50.812;4.430;2023-07-24T15:59:31;8.33;;;4.55;;
24799;SDS011;12897;50.812;4.430;2023-07-24T16:02:03;10.43;;;4.90;;
24799;SDS011;12897;50.812;4.430;2023-07-24T16:04:32;9.55;;;5.78;;
24799;SDS011;12897;50.812;4.430;2023-07-24T16:07:00;11.43;;;5.35;;
24799;SDS011;12897;50.812;4.430;2023-07-24T16:09:34;12.70;;;5.60;;
24799;SDS011;12897;50.812;4.430;2023-07-24T16:12:05;13.00;;;5.28;;
24799;SDS011;12897;50.812;4.430;2023-07-24T16:14:34;11.78;;;5.00;;
24799;SDS011;12897;50.812;4.430;2023-07-24T16:17:01;11.15;;;5.53;;
24799;SDS011;12897;50.812;4.430;2023-07-24T16:19:30;10.32;;;5.90;;
24799;SDS011;12897;50.812;4.430;2023-07-24T16:21:59;11.05;;;6.00;;
24799;SDS011;12897;50.812;4.430;2023-07-24T16:24:30;8.88;;;5.70;;
24799;SDS011;12897;50.812;4.430;2023-07-24T16:27:05;11.97;;;5.20;;
24799;SDS011;12897;50.812;4.430;2023-07-24T16:29:36;10.15;;;5.25;;
24799;SDS011;12897;50.812;4.430;2023-07-24T16:32:19;10.10;;;4.95;;
24799;SDS011;12897;50.812;4.430;2023-07-24T16:34:48;13.98;;;5.78;;
24799;SDS011;12897;50.812;4.430;2023-07-24T16:37:15;13.72;;;6.05;;
24799;SDS011;12897;50.812;4.430;2023-07-24T16:39:45;9.53;;;5.50;;
24799;SDS011;12897;50.812;4.430;2023-07-24T16:42:13;18.30;;;6.10;;
24799;SDS011;12897;50.812;4.430;2023-07-24T16:44:42;12.28;;;5.35;;
24799;SDS011;12897;50.812;4.430;2023-07-24T16:47:25;11.45;;;5.65;;
24799;SDS011;12897;50.812;4.430;2023-07-24T16:50:05;15.25;;;7.22;;
24799;SDS011;12897;50.812;4.430;2023-07-24T16:55:17;9.83;;;6.45;;
24799;SDS011;12897;50.812;4.430;2023-07-24T17:00:40;13.93;;;7.40;;
24799;SDS011;12897;50.812;4.430;2023-07-24T17:06:01;10.32;;;5.28;;
24799;SDS011;12897;50.812;4.430;2023-07-24T17:10:58;10.65;;;5.58;;
24799;SDS011;12897;50.812;4.430;2023-07-24T17:13:32;12.43;;;5.37;;
24799;SDS011;12897;50.812;4.430;2023-07-24T17:16:13;10.53;;;4.87;;
24799;SDS011;12897;50.812;4.430;2023-07-24T17:18:45;11.20;;;5.30;;
24799;SDS011;12897;50.812;4.430;2023-07-24T17:21:13;10.48;;;5.28;;
24799;SDS011;12897;50.812;4.430;2023-07-24T17:23:51;9.68;;;5.03;;
24799;SDS011;12897;50.812;4.430;2023-07-24T17:26:16;9.73;;;4.55;;
24799;SDS011;12897;50.812;4.430;2023-07-24T17:28:51;8.93;;;4.40;;
24799;SDS011;12897;50.812;4.430;2023-07-24T17:31:20;10.90;;;3.67;;
24799;SDS011;12897;50.812;4.430;2023-07-24T17:33:51;8.83;;;4.12;;
24799;SDS011;12897;50.812;4.430;2023-07-24T17:36:18;10.20;;;5.33;;
24799;SDS011;12897;50.812;4.430;2023-07-24T17:38:46;8.78;;;3.72;;
24799;SDS011;12897;50.812;4.430;2023-07-24T17:41:17;7.20;;;3.55;;
24799;SDS011;12897;50.812;4.430;2023-07-24T17:43:45;9.68;;;3.83;;
24799;SDS011;12897;50.812;4.430;2023-07-24T17:46:20;5.92;;;3.52;;
24799;SDS011;12897;50.812;4.430;2023-07-24T17:48:50;8.98;;;3.72;;
24799;SDS011;12897;50.812;4.430;2023-07-24T17:51:17;9.88;;;4.03;;
24799;SDS011;12897;50.812;4.430;2023-07-24T17:53:45;6.58;;;3.25;;
24799;SDS011;12897;50.812;4.430;2023-07-24T17:56:12;3.85;;;2.22;;
24799;SDS011;12897;50.812;4.430;2023-07-24T17:58:45;4.42;;;2.20;;
24799;SDS011;12897;50.812;4.430;2023-07-24T18:01:12;6.15;;;2.52;;
24799;SDS011;12897;50.812;4.430;2023-07-24T18:03:40;8.58;;;3.75;;
24799;SDS011;12897;50.812;4.430;2023-07-24T18:06:08;4.30;;;2.08;;
24799;SDS011;12897;50.812;4.430;2023-07-24T18:08:35;5.65;;;1.70;;
24799;SDS011;12897;50.812;4.430;2023-07-24T18:11:08;4.97;;;1.75;;
24799;SDS011;12897;50.812;4.430;2023-07-24T18:13:32;4.80;;;2.05;;
24799;SDS011;12897;50.812;4.430;2023-07-24T18:16:01;3.37;;;1.98;;
24799;SDS011;12897;50.812;4.430;2023-07-24T18:18:30;5.35;;;2.25;;
24799;SDS011;12897;50.812;4.430;2023-07-24T18:20:57;5.62;;;2.02;;
24799;SDS011;12897;50.812;4.430;2023-07-24T18:23:29;2.72;;;1.52;;
24799;SDS011;12897;50.812;4.430;2023-07-24T18:25:55;3.75;;;1.60;;
24799;SDS011;12897;50.812;4.430;2023-07-24T18:28:23;4.58;;;1.67;;
24799;SDS011;12897;50.812;4.430;2023-07-24T18:30:50;3.02;;;1.45;;
24799;SDS011;12897;50.812;4.430;2023-07-24T18:33:18;5.00;;;1.57;;
24799;SDS011;12897;50.812;4.430;2023-07-24T18:35:46;7.53;;;2.05;;
24799;SDS011;12897;50.812;4.430;2023-07-24T18:38:13;6.90;;;1.80;;
24799;SDS011;12897;50.812;4.430;2023-07-24T18:40:41;3.42;;;1.40;;
24799;SDS011;12897;50.812;4.430;2023-07-24T18:43:08;4.47;;;2.10;;
24799;SDS011;12897;50.812;4.430;2023-07-24T18:45:36;4.22;;;1.37;;
24799;SDS011;12897;50.812;4.430;2023-07-24T18:48:03;4.67;;;1.67;;
24799;SDS011;12897;50.812;4.430;2023-07-24T18:50:32;2.33;;;1.53;;
24799;SDS011;12897;50.812;4.430;2023-07-24T18:53:00;3.90;;;1.07;;
24799;SDS011;12897;50.812;4.430;2023-07-24T18:55:30;5.25;;;1.40;;
24799;SDS011;12897;50.812;4.430;2023-07-24T18:57:58;6.97;;;2.00;;
24799;SDS011;12897;50.812;4.430;2023-07-24T19:00:26;5.75;;;1.15;;
24799;SDS011;12897;50.812;4.430;2023-07-24T19:02:53;3.85;;;1.32;;
24799;SDS011;12897;50.812;4.430;2023-07-24T19:05:21;8.83;;;1.90;;
24799;SDS011;12897;50.812;4.430;2023-07-24T19:07:49;6.97;;;1.95;;
24799;SDS011;12897;50.812;4.430;2023-07-24T19:10:19;4.87;;;2.10;;
24799;SDS011;12897;50.812;4.430;2023-07-24T19:12:51;6.20;;;1.70;;
24799;SDS011;12897;50.812;4.430;2023-07-24T19:15:20;6.10;;;1.52;;
24799;SDS011;12897;50.812;4.430;2023-07-24T19:17:51;3.50;;;1.60;;
24799;SDS011;12897;50.812;4.430;2023-07-24T19:20:24;4.83;;;1.87;;
24799;SDS011;12897;50.812;4.430;2023-07-24T19:22:58;4.03;;;1.80;;
24799;SDS011;12897;50.812;4.430;2023-07-24T19:25:30;6.62;;;2.00;;
24799;SDS011;12897;50.812;4.430;2023-07-24T19:28:00;9.43;;;3.40;;
24799;SDS011;12897;50.812;4.430;2023-07-24T19:30:31;10.00;;;4.30;;
24799;SDS011;12897;50.812;4.430;2023-07-24T19:33:01;4.75;;;2.20;;
24799;SDS011;12897;50.812;4.430;2023-07-24T19:35:28;8.80;;;2.17;;
24799;SDS011;12897;50.812;4.430;2023-07-24T19:37:57;8.23;;;2.83;;
24799;SDS011;12897;50.812;4.430;2023-07-24T19:41:14;7.50;;;2.00;;
24799;SDS011;12897;50.812;4.430;2023-07-24T19:42:59;8.05;;;2.35;;
24799;SDS011;12897;50.812;4.430;2023-07-24T19:45:37;4.28;;;1.70;;
24799;SDS011;12897;50.812;4.430;2023-07-24T19:48:01;3.27;;;1.42;;
24799;SDS011;12897;50.812;4.430;2023-07-24T19:50:30;4.15;;;2.25;;
24799;SDS011;12897;50.812;4.430;2023-07-24T19:53:06;4.47;;;1.87;;
24799;SDS011;12897;50.812;4.430;2023-07-24T19:55:30;6.17;;;2.25;;
24799;SDS011;12897;50.812;4.430;2023-07-24T19:58:02;6.67;;;2.50;;
24799;SDS011;12897;50.812;4.430;2023-07-24T20:00:37;4.65;;;2.10;;
24799;SDS011;12897;50.812;4.430;2023-07-24T20:03:10;11.15;;;2.25;;
24799;SDS011;12897;50.812;4.430;2023-07-24T20:06:00;8.20;;;2.67;;
24799;SDS011;12897;50.812;4.430;2023-07-24T20:08:30;4.90;;;2.17;;
24799;SDS011;12897;50.812;4.430;2023-07-24T20:13:28;5.87;;;2.10;;
24799;SDS011;12897;50.812;4.430;2023-07-24T20:16:02;5.72;;;2.15;;
24799;SDS011;12897;50.812;4.430;2023-07-24T20:18:34;9.68;;;2.98;;
24799;SDS011;12897;50.812;4.430;2023-07-24T20:21:03;12.25;;;2.98;;
24799;SDS011;12897;50.812;4.430;2023-07-24T20:23:32;5.17;;;2.83;;
24799;SDS011;12897;50.812;4.430;2023-07-24T20:26:03;4.85;;;2.30;;
24799;SDS011;12897;50.812;4.430;2023-07-24T20:28:32;10.18;;;4.00;;
24799;SDS011;12897;50.812;4.430;2023-07-24T20:31:07;8.03;;;2.75;;
24799;SDS011;12897;50.812;4.430;2023-07-24T20:33:47;11.48;;;3.27;;
24799;SDS011;12897;50.812;4.430;2023-07-24T20:36:18;9.38;;;2.25;;
24799;SDS011;12897;50.812;4.430;2023-07-24T20:38:41;6.42;;;2.00;;
24799;SDS011;12897;50.812;4.430;2023-07-24T20:41:11;15.65;;;3.20;;
24799;SDS011;12897;50.812;4.430;2023-07-24T20:43:39;10.63;;;2.15;;
24799;SDS011;12897;50.812;4.430;2023-07-24T20:46:11;7.90;;;2.35;;
24799;SDS011;12897;50.812;4.430;2023-07-24T20:48:41;6.50;;;2.52;;
24799;SDS011;12897;50.812;4.430;2023-07-24T20:51:18;7.25;;;2.98;;
24799;SDS011;12897;50.812;4.430;2023-07-24T20:53:49;6.90;;;2.50;;
24799;SDS011;12897;50.812;4.430;2023-07-24T20:56:20;8.93;;;2.10;;
24799;SDS011;12897;50.812;4.430;2023-07-24T20:58:50;8.35;;;2.00;;
24799;SDS011;12897;50.812;4.430;2023-07-24T21:01:18;11.83;;;2.90;;
24799;SDS011;12897;50.812;4.430;2023-07-24T21:03:55;9.03;;;2.98;;
24799;SDS011;12897;50.812;4.430;2023-07-24T21:06:21;6.03;;;2.15;;
24799;SDS011;12897;50.812;4.430;2023-07-24T21:08:51;7.25;;;1.98;;
24799;SDS011;12897;50.812;4.430;2023-07-24T21:11:19;9.15;;;2.33;;
24799;SDS011;12897;50.812;4.430;2023-07-24T21:13:49;9.23;;;2.40;;
24799;SDS011;12897;50.812;4.430;2023-07-24T21:16:20;8.65;;;2.25;;
24799;SDS011;12897;50.812;4.430;2023-07-24T21:18:49;8.28;;;1.95;;
24799;SDS011;12897;50.812;4.430;2023-07-24T21:21:19;6.50;;;2.80;;
24799;SDS011;12897;50.812;4.430;2023-07-24T21:23:47;8.93;;;2.20;;
24799;SDS011;12897;50.812;4.430;2023-07-24T21:26:14;8.23;;;2.40;;
24799;SDS011;12897;50.812;4.430;2023-07-24T21:28:44;13.28;;;2.65;;
24799;SDS011;12897;50.812;4.430;2023-07-24T21:31:11;7.53;;;2.52;;
24799;SDS011;12897;50.812;4.430;2023-07-24T21:33:40;7.30;;;2.42;;
24799;SDS011;12897;50.812;4.430;2023-07-24T21:36:07;12.68;;;2.70;;
24799;SDS011;12897;50.812;4.430;2023-07-24T21:38:37;8.83;;;2.40;;
24799;SDS011;12897;50.812;4.430;2023-07-24T21:41:05;7.05;;;3.22;;
24799;SDS011;12897;50.812;4.430;2023-07-24T21:43:34;9.45;;;2.27;;
24799;SDS011;12897;50.812;4.430;2023-07-24T21:46:02;7.85;;;2.58;;
24799;SDS011;12897;50.812;4.430;2023-07-24T21:48:37;10.05;;;3.72;;
24799;SDS011;12897;50.812;4.430;2023-07-24T21:51:04;7.85;;;2.40;;
24799;SDS011;12897;50.812;4.430;2023-07-24T21:53:32;13.53;;;2.35;;
24799;SDS011;12897;50.812;4.430;2023-07-24T21:56:01;12.25;;;2.92;;
24799;SDS011;12897;50.812;4.430;2023-07-24T21:58:30;9.23;;;2.83;;
24799;SDS011;12897;50.812;4.430;2023-07-24T22:01:02;12.18;;;2.80;;
24799;SDS011;12897;50.812;4.430;2023-07-24T22:03:31;8.40;;;2.50;;
24799;SDS011;12897;50.812;4.430;2023-07-24T22:05:59;9.78;;;2.85;;
24799;SDS011;12897;50.812;4.430;2023-07-24T22:08:31;9.38;;;3.12;;
24799;SDS011;12897;50.812;4.430;2023-07-24T22:10:59;6.60;;;2.80;;
24799;SDS011;12897;50.812;4.430;2023-07-24T22:13:27;8.28;;;3.33;;
24799;SDS011;12897;50.812;4.430;2023-07-24T22:15:54;8.05;;;2.67;;
24799;SDS011;12897;50.812;4.430;2023-07-24T22:18:22;7.62;;;2.58;;
24799;SDS011;12897;50.812;4.430;2023-07-24T22:20:49;6.65;;;2.80;;
24799;SDS011;12897;50.812;4.430;2023-07-24T22:23:17;9.35;;;2.90;;
24799;SDS011;12897;50.812;4.430;2023-07-24T22:25:47;7.92;;;2.83;;
24799;SDS011;12897;50.812;4.430;2023-07-24T22:28:15;15.28;;;3.27;;
24799;SDS011;12897;50.812;4.430;2023-07-24T22:30:43;10.80;;;2.80;;
24799;SDS011;12897;50.812;4.430;2023-07-24T22:33:10;7.78;;;2.72;;
24799;SDS011;12897;50.812;4.430;2023-07-24T22:35:38;7.03;;;2.45;;
24799;SDS011;12897;50.812;4.430;2023-07-24T22:38:06;8.55;;;3.12;;
24799;SDS011;12897;50.812;4.430;2023-07-24T22:40:35;10.85;;;2.72;;
24799;SDS011;12897;50.812;4.430;2023-07-24T22:43:02;8.85;;;2.90;;
24799;SDS011;12897;50.812;4.430;2023-07-24T22:45:30;11.40;;;2.80;;
24799;SDS011;12897;50.812;4.430;2023-07-24T22:47:58;8.38;;;3.00;;
24799;SDS011;12897;50.812;4.430;2023-07-24T22:50:25;7.37;;;3.10;;
24799;SDS011;12897;50.812;4.430;2023-07-24T22:52:54;9.08;;;3.00;;
24799;SDS011;12897;50.812;4.430;2023-07-24T22:55:24;16.27;;;3.75;;